Portada
METAR-TAF:

METAR-TAF

Aeropuertos :

Aeropuerto de Granada

Granada, España

latitud: 37-11N, longitud: 003-47W, altitud: 567 m

Observación

El informe se hizo hace 37 minutos, a las 11:00 UTC
Viento 2 kt con dirección variable
Temperatura 22°C
Humedad 50%
Presión 1020 hPa
Visibilidad 10 km o más
Escasas nubes a una altura de 4000 ft

METAR: LEGR 191100Z VRB02KT 9999 FEW040 22/11 Q1020

Hora: 13:37 (11:37 UTC)

Pronóstico

El informe se hizo hace 3 horas y 37 minutos, a las 08:00 UTC
Pronóstico válido del 19 a las 09 UTC al 20 a las 09 UTC
Viento 2 kt con dirección variable
Visibilidad 10 km o más
Escasas nubes a una altura de 4000 ft
Evolucionando progresivamente
del 19 a las 11 UTC al 19 a las 13 UTC
Viento 10 kt del oeste-noroeste
Evolucionando progresivamente
del 19 a las 20 UTC al 19 a las 22 UTC
Viento 2 kt con dirección variable

TAF: LEGR 190800Z 1909/2009 VRB02KT 9999 FEW040 TX28/1914Z TN12/2006Z BECMG 1911/1913 29010KT BECMG 1920/1922 VRB02KT

Observaciones y pronósticos meteorológicos de más de 4000 aeropuertos (mensajes METAR y TAF).

Los puntos amarillos y rojos representan las estaciones disponibles.

Ponga el ratón en el punto deseado para ver el nombre de la estación.

Haga clic para ver las observaciones y los pronósticos meteorológicos.

Para cambiar el mapa : haga clic en los botones verdes con una cruz de color negro para hacer un zoom, en el botón verde con un guión para alejar o en las flechas verdes para mapas adyacentes.


METAR-TAF: